createdAt,value
2022-12-17T00:02:41.843Z,83.02
2022-12-17T00:05:27.088Z,83.44
2022-12-17T00:08:16.725Z,84.44
2022-12-17T00:11:01.688Z,84.66
2022-12-17T00:13:46.851Z,85.08
2022-12-17T00:16:31.724Z,85.17
2022-12-17T00:19:16.793Z,85.25
2022-12-17T00:22:01.568Z,84.94
2022-12-17T00:24:47.634Z,84.95
2022-12-17T00:27:32.330Z,85.56
2022-12-17T00:30:17.036Z,85.62
2022-12-17T00:36:10.955Z,85.30
2022-12-17T00:38:55.590Z,85.05
2022-12-17T00:41:43.073Z,85.32
2022-12-17T00:44:27.796Z,84.86
2022-12-17T00:50:25.418Z,86.02
2022-12-17T00:53:10.750Z,85.87
2022-12-17T00:55:55.500Z,85.67
2022-12-17T00:58:42.870Z,85.87
2022-12-17T01:01:29.354Z,85.27
2022-12-17T01:04:14.650Z,86.33
2022-12-17T01:10:08.859Z,85.81
2022-12-17T01:12:53.442Z,85.46
2022-12-17T01:15:42.579Z,85.44
2022-12-17T01:18:31.442Z,85.43
2022-12-17T01:21:16.130Z,85.70
2022-12-17T01:24:01.480Z,86.23
2022-12-17T01:26:46.307Z,85.84
2022-12-17T01:29:34.210Z,85.70
2022-12-17T01:32:20.130Z,85.62
2022-12-17T01:35:08.267Z,84.67
2022-12-17T01:37:52.881Z,85.42
2022-12-17T01:40:37.822Z,85.32
2022-12-17T01:43:36.797Z,85.24
2022-12-17T01:46:27.876Z,86.28
2022-12-17T01:49:14.015Z,86.72
2022-12-17T01:51:58.787Z,86.41
2022-12-17T01:54:43.630Z,86.43
2022-12-17T01:57:30.874Z,86.58
2022-12-17T02:00:18.593Z,86.88
2022-12-17T02:03:03.874Z,86.54
2022-12-17T02:06:06.819Z,87.10
2022-12-17T02:08:59.523Z,87.45
2022-12-17T02:11:52.270Z,88.06
2022-12-17T02:14:40.615Z,87.24
2022-12-17T02:17:29.884Z,87.79
2022-12-17T02:20:28.071Z,87.74
2022-12-17T02:23:18.636Z,87.53
2022-12-17T02:26:06.818Z,87.85
2022-12-17T02:28:54.754Z,87.16
2022-12-17T02:34:56.081Z,87.55
2022-12-17T02:37:40.971Z,87.42
2022-12-17T02:40:26.313Z,87.11
2022-12-17T02:43:10.994Z,86.91
2022-12-17T02:45:58.148Z,87.63
2022-12-17T02:48:43.107Z,87.83
2022-12-17T02:51:30.299Z,87.45
2022-12-17T02:54:14.951Z,87.18
2022-12-17T03:03:18.957Z,87.22
2022-12-17T03:06:04.211Z,87.23
2022-12-17T03:08:49.294Z,87.14
2022-12-17T03:11:33.969Z,87.48
2022-12-17T03:14:18.823Z,86.66
2022-12-17T03:17:03.595Z,86.60
2022-12-17T03:19:49.964Z,87.13
2022-12-17T03:22:34.574Z,87.20
2022-12-17T03:25:19.548Z,87.70
2022-12-17T03:28:04.169Z,87.15
2022-12-17T03:30:53.115Z,87.33
2022-12-17T03:33:38.360Z,86.58
2022-12-17T03:36:29.110Z,87.30
2022-12-17T03:39:13.829Z,87.35
2022-12-17T03:48:32.743Z,88.41
2022-12-17T03:51:19.682Z,87.86
2022-12-17T03:54:06.155Z,86.82
2022-12-17T03:56:50.928Z,87.08
2022-12-17T03:59:35.650Z,87.17
2022-12-17T04:02:20.531Z,87.40
2022-12-17T04:05:05.625Z,87.81
2022-12-17T04:07:50.391Z,87.76
2022-12-17T04:10:36.827Z,87.22
2022-12-17T04:13:21.611Z,87.50
2022-12-17T04:16:06.524Z,87.61
2022-12-17T04:18:51.330Z,87.70
2022-12-17T04:21:36.129Z,87.55
2022-12-17T04:24:20.920Z,87.82
2022-12-17T04:27:06.983Z,87.57
2022-12-17T04:29:51.122Z,87.99
2022-12-17T04:32:35.970Z,87.82
2022-12-17T04:38:31.335Z,87.71
2022-12-17T04:41:16.135Z,87.30
2022-12-17T04:44:03.352Z,87.64
2022-12-17T04:46:48.413Z,87.68
2022-12-17T04:49:33.639Z,87.79
2022-12-17T04:52:18.437Z,87.74
2022-12-17T04:55:03.233Z,88.32
2022-12-17T04:57:48.025Z,88.43
2022-12-17T05:00:35.336Z,88.52
2022-12-17T05:03:23.621Z,87.35
2022-12-17T05:09:14.040Z,87.80
2022-12-17T05:11:58.626Z,88.42
2022-12-17T05:14:43.390Z,88.35
2022-12-17T05:17:29.546Z,88.07
2022-12-17T05:20:14.323Z,87.72
2022-12-17T05:22:59.052Z,87.47
2022-12-17T05:25:43.803Z,87.22
2022-12-17T05:28:28.508Z,87.28
2022-12-17T05:31:13.812Z,88.15
2022-12-17T05:34:00.346Z,87.01
2022-12-17T05:39:54.781Z,87.12
2022-12-17T05:42:39.414Z,87.01
2022-12-17T05:45:36.202Z,86.87
2022-12-17T05:48:21.359Z,87.08
2022-12-17T05:51:09.406Z,86.78
2022-12-17T05:53:55.003Z,87.16
2022-12-17T05:56:39.754Z,87.22
2022-12-17T05:59:24.570Z,87.65
2022-12-17T06:02:09.234Z,87.23
2022-12-17T06:05:01.841Z,87.31
2022-12-17T06:17:16.067Z,86.45
2022-12-17T06:20:00.734Z,86.86
2022-12-17T06:25:55.836Z,86.61
2022-12-17T06:28:39.791Z,86.50
2022-12-17T06:31:24.598Z,86.73
2022-12-17T06:34:09.467Z,86.35
2022-12-17T06:40:03.571Z,86.69
2022-12-17T06:42:49.504Z,86.88
2022-12-17T06:45:38.019Z,87.16
2022-12-17T06:48:23.879Z,86.99
2022-12-17T06:51:12.996Z,87.01
2022-12-17T06:54:00.484Z,87.08
2022-12-17T06:59:56.335Z,86.81
2022-12-17T07:02:41.252Z,86.51
2022-12-17T07:08:35.757Z,86.38
2022-12-17T07:11:23.192Z,86.17
2022-12-17T07:14:08.266Z,85.99
2022-12-17T07:20:03.691Z,85.83
2022-12-17T07:22:48.421Z,85.83
2022-12-17T07:28:42.627Z,84.97
2022-12-17T07:31:27.568Z,85.35
2022-12-17T07:34:12.857Z,85.92
2022-12-17T07:36:57.554Z,85.27
2022-12-17T07:39:53.884Z,85.69
2022-12-17T07:42:38.580Z,85.89
2022-12-17T07:45:23.918Z,85.32
2022-12-17T07:48:17.826Z,84.75
2022-12-17T07:51:07.774Z,84.79
2022-12-17T07:53:52.464Z,85.08
2022-12-17T07:56:37.322Z,84.83
2022-12-17T07:59:22.705Z,84.98
2022-12-17T08:05:16.821Z,85.08
2022-12-17T08:08:02.934Z,84.75
2022-12-17T08:10:47.798Z,84.41
2022-12-17T08:13:32.733Z,84.88
2022-12-17T08:19:26.702Z,85.08
2022-12-17T08:22:11.479Z,84.81
2022-12-17T08:25:00.124Z,84.39
2022-12-17T08:27:44.774Z,84.27
2022-12-17T08:30:31.095Z,84.89
2022-12-17T08:33:19.849Z,84.52
2022-12-17T08:36:09.074Z,84.66
2022-12-17T08:38:53.858Z,84.93
2022-12-17T08:41:40.414Z,84.86
2022-12-17T08:44:25.184Z,85.95
2022-12-17T08:56:46.137Z,85.96
2022-12-17T08:59:32.089Z,86.33
2022-12-17T09:02:17.003Z,86.16
2022-12-17T09:05:01.754Z,86.36
2022-12-17T09:14:04.780Z,87.49
2022-12-17T09:16:50.974Z,88.20
2022-12-17T09:19:35.915Z,88.65
2022-12-17T09:22:20.520Z,88.65
2022-12-17T09:25:08.950Z,88.81
2022-12-17T09:27:53.616Z,88.90
2022-12-17T09:36:57.667Z,88.73
2022-12-17T09:39:46.104Z,88.53
2022-12-17T09:42:35.913Z,89.29
2022-12-17T09:48:37.319Z,88.88
2022-12-17T09:51:23.957Z,87.89
2022-12-17T09:54:10.093Z,88.30
2022-12-17T09:56:55.713Z,88.80
2022-12-17T09:59:44.253Z,88.96
2022-12-17T10:02:31.617Z,88.88
2022-12-17T10:05:17.201Z,88.97
2022-12-17T10:08:04.199Z,88.02
2022-12-17T10:10:51.018Z,87.98
2022-12-17T10:13:37.348Z,87.85
2022-12-17T10:16:37.937Z,87.81
2022-12-17T10:19:23.820Z,88.36
2022-12-17T10:22:08.804Z,89.32
2022-12-17T10:25:03.452Z,89.70
2022-12-17T10:27:51.871Z,90.16
2022-12-17T10:30:36.749Z,89.79
2022-12-17T10:36:39.363Z,90.26
2022-12-17T10:39:24.631Z,89.53
2022-12-17T10:48:38.771Z,89.65
2022-12-17T10:51:24.659Z,89.25
2022-12-17T10:54:10.279Z,89.54
2022-12-17T10:56:55.903Z,89.40
2022-12-17T10:59:58.455Z,89.64
2022-12-17T11:05:59.618Z,89.24
2022-12-17T11:08:41.591Z,88.72
2022-12-17T11:11:29.344Z,88.56
2022-12-17T11:14:15.331Z,88.23
2022-12-17T11:17:07.073Z,87.99
2022-12-17T11:19:55.086Z,88.33
2022-12-17T11:22:49.837Z,87.85
2022-12-17T11:25:57.562Z,88.38
2022-12-17T11:29:03.602Z,89.22
2022-12-17T11:35:26.140Z,89.08
2022-12-17T11:38:18.024Z,88.63
2022-12-17T11:44:23.831Z,88.08
2022-12-17T11:47:11.055Z,87.03
2022-12-17T11:50:02.901Z,86.86
2022-12-17T11:53:07.143Z,86.12
2022-12-17T11:55:55.231Z,86.44
2022-12-17T11:58:42.989Z,86.43
2022-12-17T12:04:51.217Z,85.92
2022-12-17T12:07:39.572Z,86.23
2022-12-17T12:10:30.365Z,85.59
2022-12-17T12:13:22.308Z,86.58
2022-12-17T12:16:13.914Z,85.98
2022-12-17T12:19:02.688Z,86.09
2022-12-17T12:21:55.896Z,85.44
2022-12-17T12:24:50.287Z,85.65
2022-12-17T12:27:55.396Z,85.62
2022-12-17T12:30:40.993Z,84.95
2022-12-17T12:33:36.030Z,84.33
2022-12-17T12:36:22.768Z,84.33
2022-12-17T12:39:12.000Z,83.85
2022-12-17T12:42:01.451Z,83.62
2022-12-17T12:48:04.559Z,82.48
2022-12-17T12:51:04.851Z,82.71
2022-12-17T12:53:49.582Z,82.69
2022-12-17T12:56:47.868Z,83.57
2022-12-17T12:59:39.580Z,83.05
2022-12-17T13:02:33.067Z,82.97
2022-12-17T13:05:19.151Z,84.33
2022-12-17T13:07:47.828Z,84.27
2022-12-17T13:10:25.353Z,84.96
2022-12-17T13:12:52.815Z,84.39
2022-12-17T13:15:23.162Z,84.46
2022-12-17T13:18:10.339Z,84.71
2022-12-17T13:20:39.013Z,85.53
2022-12-17T13:26:23.624Z,84.41
2022-12-17T13:29:11.294Z,84.81
2022-12-17T13:31:47.903Z,85.20
2022-12-17T13:34:19.927Z,85.16
2022-12-17T13:36:52.184Z,85.38
2022-12-17T13:39:33.640Z,85.29
2022-12-17T13:42:01.040Z,84.31
2022-12-17T13:44:31.419Z,83.46
2022-12-17T13:47:02.859Z,83.29
2022-12-17T13:49:31.589Z,83.37
2022-12-17T13:55:06.458Z,83.05
2022-12-17T13:57:33.807Z,83.03
2022-12-17T14:00:02.423Z,83.66
2022-12-17T14:02:31.305Z,82.73
2022-12-17T14:05:02.830Z,83.37
2022-12-17T14:07:39.131Z,83.73
2022-12-17T14:10:14.818Z,83.06
2022-12-17T14:12:41.304Z,82.32
2022-12-17T14:15:17.557Z,81.71
2022-12-17T14:17:46.211Z,82.78
2022-12-17T14:20:14.700Z,83.13
2022-12-17T14:22:51.083Z,82.79
2022-12-17T14:25:20.198Z,83.02
2022-12-17T14:27:52.869Z,82.98
2022-12-17T14:30:21.616Z,83.01
2022-12-17T14:32:49.602Z,83.25
2022-12-17T14:35:24.148Z,82.37
2022-12-17T14:37:52.867Z,81.92
2022-12-17T14:40:20.698Z,82.05
2022-12-17T14:42:48.018Z,82.12
2022-12-17T14:45:23.723Z,82.57
2022-12-17T14:47:54.901Z,81.78
2022-12-17T14:50:27.459Z,82.10
2022-12-17T14:52:57.722Z,81.71
2022-12-17T14:55:27.010Z,81.59
2022-12-17T14:57:55.158Z,81.74
2022-12-17T15:00:22.636Z,81.56
2022-12-17T15:02:55.958Z,82.22
2022-12-17T15:05:23.519Z,82.27
2022-12-17T15:07:51.700Z,81.58
2022-12-17T15:10:21.744Z,81.26
2022-12-17T15:12:51.395Z,80.16
2022-12-17T15:15:20.800Z,81.60
2022-12-17T15:17:48.176Z,79.85
2022-12-17T15:20:17.224Z,80.20
2022-12-17T15:25:43.642Z,80.34
2022-12-17T15:28:13.053Z,80.77
2022-12-17T15:33:32.785Z,81.18
2022-12-17T15:36:00.108Z,81.39
2022-12-17T15:38:27.567Z,80.79
2022-12-17T15:40:56.337Z,81.13
2022-12-17T15:43:23.975Z,80.84
2022-12-17T15:45:53.743Z,80.56
2022-12-17T15:48:23.169Z,80.00
2022-12-17T15:50:50.642Z,80.46
2022-12-17T15:53:17.982Z,80.21
2022-12-17T15:58:38.375Z,81.10
2022-12-17T16:01:06.583Z,77.09
2022-12-17T16:03:33.968Z,78.16
2022-12-17T16:06:01.894Z,77.91
2022-12-17T16:08:29.234Z,79.36
2022-12-17T16:10:56.671Z,78.43
2022-12-17T16:16:17.223Z,77.67
2022-12-17T16:18:44.664Z,77.85
2022-12-17T16:21:12.087Z,77.26
2022-12-17T16:23:39.756Z,77.47
2022-12-17T16:26:08.118Z,77.11
2022-12-17T16:28:36.561Z,76.30
2022-12-17T16:31:05.044Z,78.00
2022-12-17T16:36:25.787Z,78.74
2022-12-17T16:38:54.343Z,78.96
2022-12-17T16:41:22.636Z,79.28
2022-12-17T16:43:49.949Z,79.27
2022-12-17T16:46:24.679Z,79.05
2022-12-17T16:48:53.637Z,79.00
2022-12-17T16:51:28.426Z,78.93
2022-12-17T16:53:56.737Z,79.11
2022-12-17T16:56:25.319Z,80.26
2022-12-17T16:58:53.692Z,80.16
2022-12-17T17:01:21.659Z,79.62
2022-12-17T17:03:50.243Z,80.02
2022-12-17T17:06:19.493Z,78.40
2022-12-17T17:08:46.879Z,78.59
2022-12-17T17:11:18.852Z,79.34
2022-12-17T17:13:46.395Z,77.92
2022-12-17T17:16:13.818Z,78.60
2022-12-17T17:18:41.733Z,78.71
2022-12-17T17:21:25.874Z,79.68
2022-12-17T17:23:57.261Z,80.10
2022-12-17T17:26:25.001Z,80.08
2022-12-17T17:28:52.808Z,80.05
2022-12-17T17:31:21.642Z,79.88
2022-12-17T17:33:49.959Z,79.80
2022-12-17T17:36:18.378Z,80.33
2022-12-17T17:38:48.014Z,79.40
2022-12-17T17:41:16.041Z,79.09
2022-12-17T17:43:43.550Z,78.91
2022-12-17T17:49:03.297Z,80.32
2022-12-17T17:54:25.044Z,80.79
2022-12-17T17:56:52.481Z,80.15
2022-12-17T17:59:20.180Z,80.39
2022-12-17T18:01:49.363Z,80.72
2022-12-17T18:04:19.976Z,80.41
2022-12-17T18:07:09.139Z,79.93
2022-12-17T18:09:36.704Z,80.97
2022-12-17T18:12:25.042Z,80.93
2022-12-17T18:15:18.783Z,80.65
2022-12-17T18:17:39.210Z,80.17
2022-12-17T18:20:07.306Z,79.23
2022-12-17T18:22:34.702Z,79.92
2022-12-17T18:25:03.354Z,79.98
2022-12-17T18:27:30.707Z,80.27
2022-12-17T18:29:58.042Z,79.90
2022-12-17T18:32:25.662Z,79.56
2022-12-17T18:34:53.123Z,80.30
2022-12-17T18:37:20.579Z,82.20
2022-12-17T18:39:48.000Z,81.80
2022-12-17T18:42:34.241Z,82.60
2022-12-17T18:45:01.694Z,83.58
2022-12-17T18:47:29.039Z,82.35
2022-12-17T18:49:59.766Z,83.04
2022-12-17T18:52:27.092Z,82.50
2022-12-17T18:54:54.412Z,82.38
2022-12-17T18:57:23.082Z,82.91
2022-12-17T18:59:50.425Z,82.71
2022-12-17T19:02:19.903Z,83.48
2022-12-17T19:04:47.324Z,83.89
2022-12-17T19:07:14.690Z,83.87
2022-12-17T19:09:42.309Z,84.23
2022-12-17T19:12:10.358Z,84.49
2022-12-17T19:14:40.733Z,84.57
2022-12-17T19:17:08.055Z,85.09
2022-12-17T19:19:35.375Z,84.60
2022-12-17T19:22:03.417Z,83.19
2022-12-17T19:24:30.813Z,83.01
2022-12-17T19:26:58.492Z,84.18
2022-12-17T19:29:25.820Z,85.10
2022-12-17T19:31:54.585Z,85.52
2022-12-17T19:34:22.071Z,85.00
2022-12-17T19:36:49.405Z,83.86
2022-12-17T19:39:18.147Z,84.22
2022-12-17T19:41:45.965Z,85.23
2022-12-17T19:44:14.320Z,85.28
2022-12-17T19:46:41.980Z,84.17
2022-12-17T19:49:11.744Z,84.84
2022-12-17T19:51:40.566Z,85.33
2022-12-17T19:54:09.254Z,84.39
2022-12-17T19:56:37.321Z,85.02
2022-12-17T19:59:07.067Z,85.72
2022-12-17T20:01:35.392Z,86.36
2022-12-17T20:04:03.301Z,86.32
2022-12-17T20:06:32.808Z,84.85
2022-12-17T20:09:00.801Z,85.27
2022-12-17T20:11:34.571Z,84.61
2022-12-17T20:14:03.574Z,85.55
2022-12-17T20:16:31.932Z,85.42
2022-12-17T20:18:59.466Z,85.27
2022-12-17T20:21:27.056Z,84.78
2022-12-17T20:23:56.303Z,82.80
2022-12-17T20:26:24.233Z,83.56
2022-12-17T20:28:51.812Z,84.04
2022-12-17T20:31:19.605Z,83.85
2022-12-17T20:33:47.171Z,84.30
2022-12-17T20:36:15.955Z,84.00
2022-12-17T20:38:43.619Z,82.74
2022-12-17T20:41:13.125Z,83.66
2022-12-17T20:43:40.749Z,84.79
2022-12-17T20:46:09.561Z,85.55
2022-12-17T20:48:37.381Z,85.81
2022-12-17T20:51:06.190Z,86.44
2022-12-17T20:53:34.409Z,86.79
2022-12-17T20:56:02.256Z,87.29
2022-12-17T20:58:31.277Z,86.04
2022-12-17T21:01:05.555Z,86.23
2022-12-17T21:03:33.453Z,86.84
2022-12-17T21:06:07.955Z,87.17
2022-12-17T21:08:35.680Z,86.72
2022-12-17T21:11:03.223Z,87.35
2022-12-17T21:13:31.947Z,87.41
2022-12-17T21:16:00.166Z,87.25
2022-12-17T21:18:27.835Z,87.03
2022-12-17T21:20:56.121Z,86.13
2022-12-17T21:23:23.434Z,85.31
2022-12-17T21:25:57.846Z,86.36
2022-12-17T21:28:25.699Z,85.89
2022-12-17T21:30:54.449Z,85.36
2022-12-17T21:33:21.974Z,84.86
2022-12-17T21:35:49.466Z,85.62
2022-12-17T21:38:16.851Z,86.04
2022-12-17T21:40:44.174Z,86.12
2022-12-17T21:43:11.564Z,86.16
2022-12-17T21:45:39.912Z,86.31
2022-12-17T21:48:13.006Z,86.01
2022-12-17T21:50:43.511Z,86.72
2022-12-17T21:53:11.876Z,86.82
2022-12-17T21:55:39.381Z,86.36
2022-12-17T21:58:07.917Z,86.33
2022-12-17T22:00:35.267Z,85.98
2022-12-17T22:03:03.450Z,83.77
2022-12-17T22:05:32.162Z,83.87
2022-12-17T22:07:59.909Z,83.64
2022-12-17T22:10:36.913Z,84.06
2022-12-17T22:13:32.290Z,83.42
2022-12-17T22:15:59.776Z,83.63
2022-12-17T22:18:27.149Z,83.86
2022-12-17T22:20:59.716Z,83.75
2022-12-17T22:23:27.041Z,82.49
2022-12-17T22:25:54.679Z,82.88
2022-12-17T22:28:22.005Z,83.13
2022-12-17T22:31:08.843Z,82.80
2022-12-17T22:33:50.804Z,81.91
2022-12-17T22:39:34.894Z,81.82
2022-12-17T22:43:13.481Z,82.61
2022-12-17T22:44:45.327Z,84.18
2022-12-17T22:45:10.607Z,84.86
2022-12-17T22:47:38.967Z,85.01
2022-12-17T22:50:07.026Z,84.50
2022-12-17T22:52:36.312Z,84.40
2022-12-17T22:55:04.532Z,82.94
2022-12-17T22:57:36.775Z,81.84
2022-12-17T23:00:07.418Z,81.87
2022-12-17T23:02:34.786Z,82.43
2022-12-17T23:05:02.204Z,83.79
2022-12-17T23:07:31.920Z,84.40
2022-12-17T23:10:00.862Z,84.80
2022-12-17T23:12:45.868Z,85.43
2022-12-17T23:15:13.341Z,85.90
2022-12-17T23:17:40.991Z,84.99
2022-12-17T23:20:08.866Z,84.06
2022-12-17T23:22:36.179Z,84.41
2022-12-17T23:25:05.165Z,84.35
2022-12-17T23:27:32.490Z,84.02
2022-12-17T23:29:59.829Z,84.02
2022-12-17T23:32:27.251Z,84.55
2022-12-17T23:34:54.561Z,84.54
2022-12-17T23:37:21.890Z,84.82
2022-12-17T23:39:49.220Z,84.51
2022-12-17T23:42:17.993Z,85.71
2022-12-17T23:44:45.302Z,84.54
2022-12-17T23:47:12.642Z,84.04
2022-12-17T23:49:39.956Z,83.66
2022-12-17T23:52:07.300Z,83.23
2022-12-17T23:54:36.824Z,82.69
2022-12-17T23:57:04.167Z,82.50
2022-12-17T23:59:32.858Z,82.03
